Time;durP1;ratioP1;P1;durP2;ratioP2;P2;SDS_P1;SDS_P2;PMS_P1;PMS_P2;Temp;Humidity;BMP_temperature;BMP_pressure;BME280_temperature;BME280_humidity;BME280_pressure;Samples;Min_cycle;Max_cycle;Signal;HPM_P1;HPM_P2
2021/09/17 00:01:11;;;;;;;5.72;0.70;;;;;;;13.66;100.00;101283.72;5015505;28;20032;-74
2021/09/17 00:03:37;;;;;;;9.43;1.13;;;;;;;13.84;100.00;101283.69;5030644;28;20041;-76
2021/09/17 00:06:03;;;;;;;7.70;0.95;;;;;;;13.81;100.00;101298.00;5003574;28;20709;-76
2021/09/17 00:08:28;;;;;;;5.10;0.80;;;;;;;13.78;100.00;101295.66;5021667;28;20039;-77
2021/09/17 00:10:54;;;;;;;6.80;1.08;;;;;;;13.81;100.00;101282.19;5035309;28;20455;-77
2021/09/17 00:13:19;;;;;;;7.28;1.60;;;;;;;13.73;100.00;101283.94;5054297;28;20024;-74
2021/09/17 00:15:45;;;;;;;9.02;1.55;;;;;;;13.75;100.00;101285.44;5022757;28;20889;-76
2021/09/17 00:18:11;;;;;;;8.98;1.70;;;;;;;13.70;100.00;101286.91;5034271;28;20100;-78
2021/09/17 00:20:37;;;;;;;9.18;1.58;;;;;;;13.68;100.00;101278.31;5016615;23;20046;-77
2021/09/17 00:23:03;;;;;;;5.97;1.20;;;;;;;13.68;100.00;101288.84;5028419;28;20037;-78
2021/09/17 00:25:28;;;;;;;9.07;1.35;;;;;;;13.67;100.00;101274.84;4990814;28;20527;-78
2021/09/17 00:27:54;;;;;;;7.65;1.38;;;;;;;13.64;100.00;101277.78;4991433;28;20033;-79
2021/09/17 00:30:20;;;;;;;8.20;1.38;;;;;;;13.60;100.00;101274.63;4991631;28;20044;-79
2021/09/17 00:32:46;;;;;;;6.43;1.10;;;;;;;13.54;100.00;101269.97;4999890;28;20033;-80
2021/09/17 00:35:12;;;;;;;10.77;1.38;;;;;;;13.58;100.00;101279.22;4995576;28;20029;-79
2021/09/17 00:37:38;;;;;;;4.90;1.00;;;;;;;13.60;100.00;101271.19;5031583;28;20041;-81
2021/09/17 00:40:04;;;;;;;2.38;1.05;;;;;;;13.58;100.00;101279.22;5032529;28;20037;-78
2021/09/17 00:42:29;;;;;;;8.43;0.98;;;;;;;13.59;100.00;101275.59;5010758;28;20029;-79
2021/09/17 00:44:55;;;;;;;4.18;0.95;;;;;;;13.57;100.00;101277.56;5029384;28;20127;-77
2021/09/17 00:47:20;;;;;;;3.88;0.75;;;;;;;13.61;100.00;101272.81;5041020;28;20025;-78
2021/09/17 00:49:46;;;;;;;6.13;0.73;;;;;;;13.60;100.00;101276.44;5025856;28;20068;-78
2021/09/17 00:52:12;;;;;;;7.00;0.90;;;;;;;13.65;100.00;101273.34;5012004;28;20040;-79
2021/09/17 00:54:37;;;;;;;9.10;0.82;;;;;;;13.57;100.00;101261.75;5011037;28;20037;-80
2021/09/17 00:57:03;;;;;;;7.82;0.77;;;;;;;13.66;100.00;101272.38;5029606;28;20048;-78
2021/09/17 00:59:29;;;;;;;4.65;0.50;;;;;;;13.67;100.00;101261.66;5007519;28;20328;-79
2021/09/17 01:01:54;;;;;;;8.02;0.70;;;;;;;13.70;100.00;101265.81;4997336;28;20178;-81
2021/09/17 01:04:22;;;;;;;7.25;0.63;;;;;;;13.58;100.00;101257.28;5041050;28;20048;-79
2021/09/17 01:06:48;;;;;;;7.88;0.80;;;;;;;13.66;100.00;101265.28;4999255;28;20040;-77
2021/09/17 01:09:13;;;;;;;10.65;0.80;;;;;;;13.65;100.00;101263.63;5009560;28;20480;-78
2021/09/17 01:11:39;;;;;;;4.30;0.90;;;;;;;13.60;100.00;101268.53;5016023;28;20511;-78
2021/09/17 01:14:05;;;;;;;7.80;0.95;;;;;;;13.60;100.00;101265.91;5035289;28;20210;-77
2021/09/17 01:16:31;;;;;;;11.52;1.42;;;;;;;13.51;100.00;101265.00;5011130;28;20098;-80
2021/09/17 01:18:57;;;;;;;7.20;0.98;;;;;;;13.59;100.00;101266.88;5045464;28;20521;-80
2021/09/17 01:21:24;;;;;;;4.50;0.80;;;;;;;13.62;100.00;101269.22;5033550;28;20036;-79
2021/09/17 01:23:49;;;;;;;4.78;0.80;;;;;;;13.59;100.00;101265.06;5012248;28;20073;-79
2021/09/17 01:26:15;;;;;;;12.02;1.25;;;;;;;13.55;100.00;101263.72;5054232;28;20072;-77
2021/09/17 01:28:41;;;;;;;5.93;1.10;;;;;;;13.61;100.00;101268.38;5018527;28;20044;-80
2021/09/17 01:31:07;;;;;;;7.13;0.95;;;;;;;13.56;100.00;101262.75;5036850;28;20049;-78
2021/09/17 01:33:32;;;;;;;6.57;0.90;;;;;;;13.55;100.00;101257.63;5047920;28;20064;-80
2021/09/17 01:36:00;;;;;;;6.53;1.10;;;;;;;13.59;100.00;101266.88;5054707;28;20405;-78
2021/09/17 01:38:28;;;;;;;4.55;0.80;;;;;;;13.59;100.00;101262.41;5026741;28;20064;-79
2021/09/17 01:40:54;;;;;;;8.90;1.20;;;;;;;13.52;100.00;101258.75;5009767;28;20036;-78
2021/09/17 01:43:21;;;;;;;6.43;0.90;;;;;;;13.46;100.00;101251.44;5061184;28;20017;-76
2021/09/17 01:45:46;;;;;;;2.28;0.60;;;;;;;13.52;100.00;101271.09;5060698;28;20039;-77
2021/09/17 01:48:12;;;;;;;3.88;0.93;;;;;;;13.56;100.00;101248.72;5059567;28;20610;-80
2021/09/17 01:50:37;;;;;;;3.25;0.73;;;;;;;13.48;100.00;101249.50;5055296;28;20037;-81
2021/09/17 01:53:03;;;;;;;3.17;0.88;;;;;;;13.52;100.00;101252.66;5049914;28;20033;-78
2021/09/17 01:55:28;;;;;;;10.75;1.00;;;;;;;13.50;100.00;101262.53;5051455;28;20036;-80
2021/09/17 01:57:54;;;;;;;6.38;0.88;;;;;;;13.49;100.00;101258.25;5044370;28;20263;-80
2021/09/17 02:00:20;;;;;;;4.40;0.70;;;;;;;13.55;100.00;101255.00;5012536;28;20029;-79
2021/09/17 02:02:46;;;;;;;7.30;1.10;;;;;;;13.55;100.00;101258.44;5043873;28;20045;-79
2021/09/17 02:05:11;;;;;;;4.43;1.00;;;;;;;13.57;100.00;101264.38;5031359;28;20043;-80
2021/09/17 02:07:37;;;;;;;7.35;1.15;;;;;;;13.58;100.00;101258.16;5018942;28;20029;-81
2021/09/17 02:10:04;;;;;;;11.10;1.27;;;;;;;13.57;100.00;101264.38;5021429;28;20030;-81
2021/09/17 02:12:29;;;;;;;4.78;0.93;;;;;;;13.58;100.00;101258.16;5018245;28;20076;-79
2021/09/17 02:14:55;;;;;;;6.95;0.75;;;;;;;13.54;100.00;101255.97;5020849;28;20060;-80
2021/09/17 02:17:23;;;;;;;8.07;0.98;;;;;;;13.53;100.00;101254.31;5047087;28;20372;-79
2021/09/17 02:19:48;;;;;;;2.95;0.80;;;;;;;13.49;100.00;101260.88;5051529;28;20044;-80
2021/09/17 02:22:14;;;;;;;4.03;0.82;;;;;;;13.48;100.00;101252.13;5037412;28;20107;-81
2021/09/17 02:24:40;;;;;;;4.70;0.95;;;;;;;13.51;100.00;101243.09;5041607;28;20032;-79
2021/09/17 02:27:06;;;;;;;7.38;2.05;;;;;;;13.55;100.00;101255.00;5035713;28;20029;-81
2021/09/17 02:29:31;;;;;;;6.10;1.10;;;;;;;13.63;100.00;101250.59;5053195;28;20040;-81
2021/09/17 02:31:57;;;;;;;6.82;1.13;;;;;;;13.52;100.00;101255.28;5019186;28;20406;-80
2021/09/17 02:34:22;;;;;;;3.25;0.85;;;;;;;13.52;100.00;101250.00;5054163;28;20349;-79
2021/09/17 02:36:48;;;;;;;2.65;1.17;;;;;;;13.56;100.00;101252.22;5040301;28;20131;-78
2021/09/17 02:39:15;;;;;;;5.05;1.25;;;;;;;13.49;100.00;101239.81;5047892;28;20112;-79
2021/09/17 02:41:41;;;;;;;5.20;0.90;;;;;;;13.53;100.00;101252.50;5077836;28;20048;-79
2021/09/17 02:44:07;;;;;;;7.47;0.95;;;;;;;13.60;100.00;101244.81;5050134;28;20084;-78
2021/09/17 02:46:32;;;;;;;5.13;1.05;;;;;;;13.54;100.00;101254.16;5029489;28;20030;-78
2021/09/17 02:48:58;;;;;;;5.57;1.10;;;;;;;13.51;100.00;101251.00;5021189;28;20044;-78
2021/09/17 02:51:23;;;;;;;7.93;1.13;;;;;;;13.49;100.00;101248.53;5020874;28;20044;-78
2021/09/17 02:53:49;;;;;;;3.28;0.85;;;;;;;13.47;100.00;101247.84;5033520;28;20020;-78
2021/09/17 02:56:15;;;;;;;6.57;1.10;;;;;;;13.49;100.00;101250.34;5041751;28;20044;-77
2021/09/17 02:58:41;;;;;;;5.47;1.10;;;;;;;13.54;100.00;101248.06;5074958;28;20033;-78
2021/09/17 03:01:06;;;;;;;6.45;0.90;;;;;;;13.46;100.00;101254.09;5058159;28;20036;-77
2021/09/17 03:03:32;;;;;;;5.78;1.05;;;;;;;13.52;100.00;101253.47;5039327;28;20036;-81
2021/09/17 03:05:57;;;;;;;4.35;1.00;;;;;;;13.52;100.00;101252.66;5035787;28;20128;-78
2021/09/17 03:08:23;;;;;;;4.38;0.95;;;;;;;13.56;100.00;101251.34;5032787;28;20029;-82
2021/09/17 03:10:48;;;;;;;4.90;1.00;;;;;;;13.51;100.00;101251.00;5047983;28;20052;-79
2021/09/17 03:13:14;;;;;;;3.15;1.02;;;;;;;13.46;100.00;101240.09;5032593;28;20060;-80
2021/09/17 03:15:39;;;;;;;3.13;0.88;;;;;;;13.51;100.00;101243.94;5039114;28;20037;-81
2021/09/17 03:18:05;;;;;;;4.90;0.80;;;;;;;13.47;100.00;101247.00;5030594;28;20102;-80
2021/09/17 03:20:30;;;;;;;4.72;0.75;;;;;;;13.48;100.00;101246.84;5055984;28;20494;-79
2021/09/17 03:22:56;;;;;;;11.27;0.82;;;;;;;13.39;100.00;101227.53;5039850;28;20040;-82
2021/09/17 03:25:21;;;;;;;5.07;0.73;;;;;;;13.39;100.00;101231.97;5039878;28;20037;-79
2021/09/17 03:27:46;;;;;;;2.47;0.60;;;;;;;13.37;100.00;101231.28;5032279;28;20086;-80
2021/09/17 03:30:12;;;;;;;3.60;0.70;;;;;;;13.47;100.00;101245.22;5028594;28;20033;-79
2021/09/17 03:32:39;;;;;;;4.97;0.95;;;;;;;13.50;100.00;101255.44;5038751;28;20036;-80
2021/09/17 03:35:05;;;;;;;3.20;0.93;;;;;;;13.47;100.00;101255.75;5011038;28;20231;-79
2021/09/17 03:37:31;;;;;;;2.85;1.00;;;;;;;13.42;100.00;101242.19;5037862;28;20033;-79
2021/09/17 03:39:56;;;;;;;7.35;1.15;;;;;;;13.42;100.00;101252.75;5022050;28;20033;-81
2021/09/17 03:42:22;;;;;;;8.55;1.20;;;;;;;13.38;100.00;101246.13;5021701;28;20052;-81
2021/09/17 03:44:47;;;;;;;1.48;0.73;;;;;;;13.36;100.00;101248.09;5053617;28;20136;-79
2021/09/17 03:47:13;;;;;;;2.83;0.63;;;;;;;13.35;100.00;101246.44;5026385;28;20108;-80
2021/09/17 03:49:39;;;;;;;5.28;0.65;;;;;;;13.39;100.00;101256.53;5020335;28;20507;-81
2021/09/17 03:52:05;;;;;;;1.90;0.43;;;;;;;13.39;100.00;101245.13;5035701;28;20033;-81
2021/09/17 03:54:31;;;;;;;3.70;0.70;;;;;;;13.38;100.00;101246.94;5038080;28;20044;-79
2021/09/17 03:56:58;;;;;;;1.85;0.40;;;;;;;13.27;100.00;101233.97;5001619;28;20037;-79
2021/09/17 03:59:24;;;;;;;5.50;0.35;;;;;;;13.25;100.00;101246.47;5000170;28;20048;-79
2021/09/17 04:01:49;;;;;;;3.55;0.50;;;;;;;13.25;100.00;101243.84;5036599;28;20064;-76
2021/09/17 04:04:15;;;;;;;2.38;0.35;;;;;;;13.25;100.00;101247.31;5083722;28;20036;-78
2021/09/17 04:06:42;;;;;;;4.25;0.50;;;;;;;13.24;100.00;101244.81;5051991;28;20071;-79
2021/09/17 04:09:09;;;;;;;2.97;0.40;;;;;;;13.29;100.00;101249.63;5024540;28;20365;-79
2021/09/17 04:11:35;;;;;;;0.95;0.30;;;;;;;13.20;100.00;101254.84;5038974;28;20038;-77
2021/09/17 04:14:00;;;;;;;4.93;0.38;;;;;;;13.11;100.00;101247.00;5050397;28;20083;-77
2021/09/17 04:16:26;;;;;;;1.75;0.40;;;;;;;13.09;100.00;101252.44;5067383;28;20032;-78
2021/09/17 04:18:51;;;;;;;1.52;0.35;;;;;;;13.22;100.00;101263.44;5065533;28;20093;-77
2021/09/17 04:21:17;;;;;;;0.73;0.30;;;;;;;13.09;100.00;101249.81;5046599;28;20029;-76
2021/09/17 04:23:42;;;;;;;3.90;0.40;;;;;;;13.10;100.00;101248.00;5051579;28;20092;-77
2021/09/17 04:26:08;;;;;;;3.67;0.50;;;;;;;13.19;100.00;101258.44;5050925;28;20042;-80
2021/09/17 04:28:33;;;;;;;1.40;0.47;;;;;;;13.09;100.00;101244.53;5029605;28;20075;-79
2021/09/17 04:30:59;;;;;;;2.83;0.43;;;;;;;13.03;100.00;101255.66;4987495;28;20064;-81
2021/09/17 04:33:24;;;;;;;6.20;0.40;;;;;;;13.09;100.00;101262.13;5020979;28;20044;-78
2021/09/17 04:35:50;;;;;;;5.90;0.40;;;;;;;13.05;100.00;101264.22;5025297;28;20048;-81
2021/09/17 04:38:15;;;;;;;2.85;0.40;;;;;;;13.08;100.00;101269.22;5008116;28;20099;-80
2021/09/17 04:40:42;;;;;;;3.42;0.47;;;;;;;13.01;100.00;101265.50;5052580;28;20028;-80
2021/09/17 04:43:07;;;;;;;0.93;0.30;;;;;;;12.96;100.00;101273.03;5065017;28;20028;-80
2021/09/17 04:45:33;;;;;;;3.55;0.52;;;;;;;12.96;100.00;101262.50;5033720;28;20032;-80
2021/09/17 04:48:06;;;;;;;2.35;0.40;;;;;;;13.04;100.00;101271.31;5046201;28;20043;-79
2021/09/17 04:50:31;;;;;;;3.40;0.35;;;;;;;13.05;100.00;101280.88;5036123;28;20041;-81
2021/09/17 04:52:57;;;;;;;0.88;0.30;;;;;;;12.92;100.00;101277.78;5037174;28;20037;-78
2021/09/17 04:55:22;;;;;;;2.78;0.60;;;;;;;12.92;100.00;101280.41;5035854;28;20155;-80
2021/09/17 04:57:48;;;;;;;3.63;0.30;;;;;;;12.97;100.00;101283.41;5014582;28;20427;-81
2021/09/17 05:00:14;;;;;;;2.42;0.55;;;;;;;12.93;100.00;101268.91;5019528;28;20041;-79
2021/09/17 05:02:39;;;;;;;3.30;0.28;;;;;;;12.92;100.00;101293.59;5032981;28;20446;-81
2021/09/17 05:05:05;;;;;;;3.00;0.30;;;;;;;12.99;100.00;101289.34;5032632;28;20032;-82
2021/09/17 05:07:34;;;;;;;2.45;0.30;;;;;;;12.99;100.00;101288.53;5050929;28;20104;-81
2021/09/17 05:09:59;;;;;;;2.15;0.20;;;;;;;12.85;100.00;101290.69;5003503;28;20040;-82
2021/09/17 05:12:25;;;;;;;1.23;0.20;;;;;;;12.89;97.38;101282.53;5054885;28;20040;-80
2021/09/17 05:14:50;;;;;;;1.30;0.20;;;;;;;12.81;99.74;101286.72;5020162;28;20037;-79
2021/09/17 05:17:16;;;;;;;3.80;0.30;;;;;;;12.86;100.00;101281.00;5048900;28;20033;-82
2021/09/17 05:19:41;;;;;;;2.60;0.30;;;;;;;12.84;100.00;101286.41;5034239;28;20075;-82
2021/09/17 05:22:07;;;;;;;3.65;0.30;;;;;;;12.87;100.00;101285.28;5024815;28;20036;-80
2021/09/17 05:24:32;;;;;;;1.65;0.30;;;;;;;12.89;100.00;101285.16;5012916;28;20041;-81
2021/09/17 05:26:58;;;;;;;3.92;0.30;;;;;;;12.88;97.55;101286.94;5062786;28;20501;-80
2021/09/17 05:29:23;;;;;;;4.93;0.40;;;;;;;12.87;100.00;101284.47;5049824;28;20095;-80
2021/09/17 05:31:48;;;;;;;2.38;0.50;;;;;;;12.85;100.00;101288.06;5020952;28;20029;-82
2021/09/17 05:34:14;;;;;;;3.90;0.47;;;;;;;12.83;98.80;101278.69;5007296;28;20120;-80
2021/09/17 05:36:39;;;;;;;5.53;0.50;;;;;;;12.84;100.00;101280.31;5034331;28;20034;-78
2021/09/17 05:39:05;;;;;;;5.20;0.43;;;;;;;12.88;98.75;101279.03;5032398;28;20147;-80
2021/09/17 05:41:30;;;;;;;1.30;0.30;;;;;;;12.88;100.00;101289.56;5042201;28;20458;-81
2021/09/17 05:43:56;;;;;;;3.00;0.50;;;;;;;12.90;100.00;101297.31;5051351;28;20025;-79
2021/09/17 05:46:21;;;;;;;4.00;0.40;;;;;;;12.90;100.00;101295.50;5030601;28;20037;-82
2021/09/17 05:48:47;;;;;;;2.72;0.35;;;;;;;12.92;100.00;101282.19;5042953;28;20030;-81
2021/09/17 05:51:13;;;;;;;2.15;0.40;;;;;;;12.81;100.00;101284.09;5018533;28;20111;-80
2021/09/17 05:53:38;;;;;;;2.55;0.30;;;;;;;12.87;98.63;101290.56;5028982;28;20510;-80
2021/09/17 05:56:04;;;;;;;3.30;0.55;;;;;;;12.91;100.00;101299.00;5012729;28;20033;-79
2021/09/17 05:58:34;;;;;;;0.95;0.30;;;;;;;12.80;100.00;101289.50;5051853;28;20048;-80
2021/09/17 06:01:00;;;;;;;1.92;0.40;;;;;;;12.98;100.00;101292.16;5029044;28;20035;-80
2021/09/17 06:03:26;;;;;;;6.18;0.43;;;;;;;12.96;99.44;101294.09;5028372;28;20052;-80
2021/09/17 06:05:52;;;;;;;5.63;0.30;;;;;;;13.03;100.00;101287.25;5030660;28;20028;-80
2021/09/17 06:08:18;;;;;;;2.67;0.40;;;;;;;13.04;98.34;101286.28;5030896;28;20036;-80
2021/09/17 06:10:43;;;;;;;1.58;0.50;;;;;;;13.06;96.72;101294.88;5019200;28;20032;-80
2021/09/17 06:13:09;;;;;;;2.50;0.80;;;;;;;13.03;100.00;101296.00;5030274;28;20526;-81
2021/09/17 06:15:34;;;;;;;3.30;0.52;;;;;;;13.01;96.63;101291.84;5023810;28;20033;-78
2021/09/17 06:18:00;;;;;;;1.05;0.20;;;;;;;12.96;96.75;101287.03;5039508;28;20040;-80
2021/09/17 06:20:25;;;;;;;2.53;0.30;;;;;;;13.08;98.77;101289.47;5018435;23;20051;-85
2021/09/17 06:22:53;;;;;;;4.68;0.50;;;;;;;13.10;97.26;101290.13;4980074;28;20487;-85
2021/09/17 06:25:20;;;;;;;1.00;0.40;;;;;;;13.11;96.51;101292.63;4980678;28;20041;-84
2021/09/17 06:27:47;;;;;;;0.65;0.20;;;;;;;13.12;96.91;101291.63;4976120;28;20080;-84
2021/09/17 06:30:13;;;;;;;0.88;0.40;;;;;;;13.19;98.40;101291.88;4976326;28;20064;-84
2021/09/17 06:32:39;;;;;;;1.88;0.50;;;;;;;13.16;96.73;101295.63;4960322;28;20034;-84
2021/09/17 06:35:05;;;;;;;3.70;0.50;;;;;;;13.26;95.06;101295.56;4949993;28;20400;-83
2021/09/17 06:37:31;;;;;;;1.85;0.40;;;;;;;13.21;95.49;101298.63;4995350;28;20108;-83
2021/09/17 06:39:56;;;;;;;1.70;0.28;;;;;;;13.20;97.15;101291.72;4995434;28;20116;-85
2021/09/17 06:42:22;;;;;;;1.33;0.20;;;;;;;13.14;93.23;101299.38;4963263;28;20088;-84
2021/09/17 06:44:47;;;;;;;4.05;0.20;;;;;;;13.09;93.30;101306.91;4979265;28;20045;-84
2021/09/17 06:47:13;;;;;;;3.03;0.30;;;;;;;13.20;93.32;101304.03;4961894;28;20034;-84
2021/09/17 06:49:39;;;;;;;4.05;0.30;;;;;;;13.27;93.66;101302.47;4959962;28;20125;-85
2021/09/17 06:52:04;;;;;;;0.88;0.20;;;;;;;13.54;90.44;101309.53;4943994;28;20081;-84
2021/09/17 06:54:30;;;;;;;0.88;0.22;;;;;;;13.75;90.54;101306.53;4959772;28;20516;-85
2021/09/17 06:56:55;;;;;;;2.17;0.35;;;;;;;13.89;91.96;101310.44;4963769;28;20048;-84
2021/09/17 06:59:21;;;;;;;0.93;0.30;;;;;;;14.04;91.19;101308.06;4960981;28;20031;-86
2021/09/17 07:01:46;;;;;;;2.25;0.20;;;;;;;14.09;87.94;101305.78;4965791;28;20049;-85
2021/09/17 07:04:12;;;;;;;1.17;0.28;;;;;;;14.11;91.21;101293.25;4972692;28;20077;-84
2021/09/17 07:06:37;;;;;;;0.57;0.30;;;;;;;14.14;88.03;101294.75;4995382;28;20422;-84
2021/09/17 07:09:04;;;;;;;3.92;0.40;;;;;;;14.08;87.15;101298.84;4976140;28;20033;-84
2021/09/17 07:11:30;;;;;;;0.73;0.20;;;;;;;14.04;87.58;101307.22;4967303;28;20120;-86
2021/09/17 07:13:55;;;;;;;0.82;0.20;;;;;;;14.06;89.45;101297.34;4963025;28;20120;-85
2021/09/17 07:16:21;;;;;;;0.80;0.20;;;;;;;14.10;85.03;101301.31;4960871;28;20031;-84
2021/09/17 07:18:46;;;;;;;2.92;0.25;;;;;;;14.17;85.49;101308.47;4968836;28;20050;-84
2021/09/17 07:21:12;;;;;;;1.58;0.20;;;;;;;14.23;86.35;101304.38;4955643;28;20164;-84
2021/09/17 07:23:37;;;;;;;1.35;0.20;;;;;;;14.43;84.56;101304.13;4979082;28;20057;-86
2021/09/17 07:26:03;;;;;;;2.55;0.25;;;;;;;14.45;88.43;101303.00;4970342;28;20026;-86
2021/09/17 07:28:33;;;;;;;0.85;0.10;;;;;;;14.47;82.81;101308.94;4974874;28;20037;-84
2021/09/17 07:31:02;;;;;;;0.75;0.30;;;;;;;14.33;84.89;101318.25;4962284;28;20115;-83
2021/09/17 07:33:27;;;;;;;1.10;0.20;;;;;;;14.32;82.75;101306.06;4962167;28;20040;-84
2021/09/17 07:35:53;;;;;;;3.35;0.10;;;;;;;14.31;84.28;101300.94;4963496;28;20129;-88
2021/09/17 07:38:19;;;;;;;2.75;0.30;;;;;;;14.45;83.35;101310.91;4965403;28;20035;-85
2021/09/17 07:40:44;;;;;;;0.95;0.22;;;;;;;14.56;83.49;101313.28;4993311;28;20488;-88
2021/09/17 07:43:10;;;;;;;3.88;0.28;;;;;;;14.62;89.34;101316.28;4980517;28;20034;-85
2021/09/17 07:45:35;;;;;;;0.35;0.17;;;;;;;14.56;82.41;101309.78;4974912;28;20040;-88
2021/09/17 07:48:02;;;;;;;1.05;0.20;;;;;;;14.49;87.96;101306.16;4957178;28;20053;-86
2021/09/17 07:50:29;;;;;;;3.15;0.40;;;;;;;14.55;85.11;101314.25;4997066;28;20041;-84
2021/09/17 07:52:55;;;;;;;3.20;0.38;;;;;;;14.63;83.10;101315.31;4977905;28;20089;-85
2021/09/17 07:55:21;;;;;;;3.33;0.30;;;;;;;14.72;87.19;101315.16;4965306;28;20121;-87
2021/09/17 07:57:47;;;;;;;4.82;0.60;;;;;;;14.71;84.56;101318.81;4966320;28;20072;-84
2021/09/17 08:00:15;;;;;;;2.50;0.30;;;;;;;14.87;85.60;101318.03;4949144;28;20493;-88
2021/09/17 08:02:42;;;;;;;3.28;0.30;;;;;;;15.06;82.53;101318.75;4963893;28;20117;-85
2021/09/17 08:05:08;;;;;;;0.30;0.10;;;;;;;15.12;82.17;101333.94;4998331;28;20041;-84
2021/09/17 08:07:33;;;;;;;7.60;0.40;;;;;;;15.14;80.50;101327.53;4968901;28;20025;-85
2021/09/17 08:09:59;;;;;;;4.13;0.50;;;;;;;15.26;85.53;101337.78;4969925;28;20038;-86
2021/09/17 08:12:24;;;;;;;2.30;0.30;;;;;;;15.17;79.57;101326.38;4952449;28;20060;-85
2021/09/17 08:14:50;;;;;;;2.47;0.40;;;;;;;15.07;79.08;101331.78;4981788;28;20066;-87
2021/09/17 08:17:16;;;;;;;1.05;0.35;;;;;;;15.06;80.99;101331.94;4982024;28;20036;-85
2021/09/17 08:19:41;;;;;;;0.68;0.20;;;;;;;15.05;83.11;101332.94;4959308;28;20037;-84
2021/09/17 08:22:07;;;;;;;0.50;0.20;;;;;;;15.08;79.58;101330.78;4973764;28;20116;-87
2021/09/17 08:24:32;;;;;;;0.35;0.22;;;;;;;15.07;78.66;101338.88;4954613;28;20042;-85
2021/09/17 08:27:00;;;;;;;0.70;0.20;;;;;;;15.21;80.75;101332.97;4997236;28;20025;-86
2021/09/17 08:29:26;;;;;;;4.35;0.30;;;;;;;15.33;83.62;101346.69;4968351;28;20053;-85
2021/09/17 08:32:06;;;;;;;3.83;0.50;;;;;;;15.37;79.59;101338.28;4968392;28;20040;-85
2021/09/17 08:34:51;;;;;;;4.72;0.30;;;;;;;15.69;78.93;101344.59;4972899;28;20370;-85
2021/09/17 08:37:37;;;;;;;3.83;0.40;;;;;;;15.57;77.17;101337.97;4987324;28;20041;-84
2021/09/17 08:40:22;;;;;;;2.10;0.30;;;;;;;15.48;79.74;101347.72;4997684;28;20508;-85
2021/09/17 08:42:48;;;;;;;1.08;0.35;;;;;;;15.48;82.50;101346.88;4970843;28;20041;-84
2021/09/17 08:45:14;;;;;;;1.27;0.30;;;;;;;15.44;85.44;101346.38;4956430;28;20034;-86
2021/09/17 08:47:47;;;;;;;2.40;0.10;;;;;;;15.45;82.83;101349.88;4969690;28;20120;-84
2021/09/17 08:50:14;;;;;;;0.40;0.20;;;;;;;15.35;79.69;101352.63;4960048;28;20060;-85
2021/09/17 08:52:40;;;;;;;1.75;0.20;;;;;;;15.41;83.39;101348.50;4979719;28;20572;-85
2021/09/17 08:55:07;;;;;;;1.90;0.28;;;;;;;15.43;85.06;101351.84;4981781;28;20038;-85
2021/09/17 08:57:32;;;;;;;2.88;0.30;;;;;;;15.50;84.48;101345.75;4968770;28;20037;-82
2021/09/17 08:59:58;;;;;;;3.05;0.30;;;;;;;15.46;78.68;101340.94;4991060;28;20030;-85
2021/09/17 09:02:28;;;;;;;0.68;0.20;;;;;;;15.56;81.79;101357.47;4962554;28;20497;-82
2021/09/17 09:05:03;;;;;;;2.75;0.50;;;;;;;15.56;79.44;101360.94;4998403;28;20051;-84
2021/09/17 09:07:35;;;;;;;0.73;0.50;;;;;;;15.65;78.25;101359.13;4996999;28;20056;-87
2021/09/17 09:10:14;;;;;;;1.80;0.37;;;;;;;15.72;77.69;101356.63;4981444;28;20084;-85
2021/09/17 09:12:47;;;;;;;1.60;0.30;;;;;;;15.85;80.64;101361.47;4964291;28;20030;-84
2021/09/17 09:15:16;;;;;;;;;;;;;;;15.82;76.68;101365.25;4980718;28;20124;-83
2021/09/17 09:17:44;;;;;;;3.38;0.40;;;;;;;15.90;78.17;101359.16;4964419;28;20380;-85
2021/09/17 09:20:22;;;;;;;0.40;0.17;;;;;;;16.07;79.61;101357.31;4976674;28;20124;-84
2021/09/17 09:23:10;;;;;;;1.48;0.30;;;;;;;16.16;80.33;101353.66;4976766;28;20037;-85
2021/09/17 09:25:58;;;;;;;0.90;0.30;;;;;;;16.01;78.84;101350.88;4974491;28;20034;-84
2021/09/17 09:28:30;;;;;;;3.05;0.30;;;;;;;16.12;79.95;101357.63;5000436;28;20084;-83
2021/09/17 09:31:01;;;;;;;1.90;0.45;;;;;;;16.00;78.37;101357.16;4963572;28;20492;-84
2021/09/17 09:33:32;;;;;;;0.93;0.30;;;;;;;16.05;76.28;101346.06;4964100;28;20037;-82
2021/09/17 09:36:01;;;;;;;1.85;0.30;;;;;;;16.19;76.37;101355.16;5012748;28;20041;-85
2021/09/17 09:38:30;;;;;;;2.63;1.63;;;;;;;16.17;74.79;101357.13;4979938;28;20080;-83
2021/09/17 09:41:00;;;;;;;7.18;2.78;;;;;;;16.30;76.72;101354.78;4995544;28;20404;-83
2021/09/17 09:43:30;;;;;;;3.25;1.48;;;;;;;16.30;74.85;101355.63;4979769;28;20038;-83
2021/09/17 09:46:19;;;;;;;1.52;1.30;;;;;;;16.41;81.31;101353.63;4992807;28;20034;-86
2021/09/17 09:49:01;;;;;;;1.95;0.63;;;;;;;16.45;75.54;101357.56;4961412;28;20033;-83
2021/09/17 09:51:31;;;;;;;2.15;0.40;;;;;;;16.30;77.13;101352.97;4979995;28;20046;-84
2021/09/17 09:53:57;;;;;;;1.45;0.50;;;;;;;16.51;75.48;101356.88;4979876;28;20034;-83
2021/09/17 09:56:23;;;;;;;0.63;0.40;;;;;;;16.68;81.54;101353.16;4963802;28;20038;-84
2021/09/17 09:58:50;;;;;;;2.92;0.35;;;;;;;16.56;75.06;101346.63;4979267;28;20032;-86
2021/09/17 10:01:18;;;;;;;1.10;0.40;;;;;;;16.51;78.00;101352.41;4983868;28;20061;-86
2021/09/17 10:03:46;;;;;;;0.65;0.30;;;;;;;16.31;77.38;101346.69;4963530;28;20033;-85
2021/09/17 10:06:14;;;;;;;0.77;0.28;;;;;;;16.12;74.29;101339.94;4959952;28;20408;-85
2021/09/17 10:08:40;;;;;;;1.55;0.20;;;;;;;15.87;75.72;101336.50;4967756;28;20030;-84
2021/09/17 10:11:05;;;;;;;0.82;0.30;;;;;;;15.68;78.24;101336.81;4969858;28;20425;-83
2021/09/17 10:13:31;;;;;;;4.60;0.30;;;;;;;15.58;79.99;101353.66;4977959;28;20069;-82
2021/09/17 10:15:57;;;;;;;5.95;0.43;;;;;;;15.57;83.38;101337.97;4973981;28;20652;-86
2021/09/17 10:18:23;;;;;;;5.38;0.43;;;;;;;15.64;80.22;101348.72;4972346;28;20053;-85
2021/09/17 10:20:50;;;;;;;2.78;0.45;;;;;;;15.62;77.07;101358.63;4960278;28;20046;-86
2021/09/17 10:23:32;;;;;;;6.28;0.40;;;;;;;15.57;80.67;101349.34;4980129;28;20125;-85
2021/09/17 10:26:03;;;;;;;8.00;0.50;;;;;;;15.60;82.61;101350.03;4971274;28;20038;-85
2021/09/17 10:28:30;;;;;;;0.52;0.20;;;;;;;15.48;78.09;101354.81;4979777;28;20053;-86
2021/09/17 10:31:13;;;;;;;1.02;0.30;;;;;;;15.38;81.11;101358.44;4979356;28;20034;-86
2021/09/17 10:33:39;;;;;;;0.85;0.20;;;;;;;15.23;78.93;101352.13;4977331;28;20081;-86
2021/09/17 10:36:05;;;;;;;0.85;0.50;;;;;;;15.29;79.78;101361.22;4960105;28;20034;-87
2021/09/17 10:38:32;;;;;;;1.63;0.40;;;;;;;15.37;79.90;101356.78;4960956;28;20054;-86
2021/09/17 10:41:03;;;;;;;4.57;0.47;;;;;;;15.37;79.88;101346.22;4979368;28;20030;-86
2021/09/17 10:43:46;;;;;;;1.27;0.45;;;;;;;15.40;81.54;101352.97;4979349;28;20046;-83
2021/09/17 10:46:20;;;;;;;3.92;0.40;;;;;;;15.43;83.51;101354.50;4973240;28;20088;-83
2021/09/17 10:48:51;;;;;;;1.95;0.30;;;;;;;15.50;79.76;101355.47;4988262;28;20508;-85
2021/09/17 10:51:28;;;;;;;0.60;0.40;;;;;;;15.37;82.73;101346.22;4962289;28;20064;-86
2021/09/17 10:53:58;;;;;;;4.75;0.25;;;;;;;15.30;81.05;101349.69;4979306;28;20041;-84
2021/09/17 10:56:25;;;;;;;2.22;0.22;;;;;;;15.01;79.75;101352.72;4977387;28;20034;-85
2021/09/17 10:59:38;;;;;;;3.28;0.30;;;;;;;14.84;83.44;101359.78;4984602;28;20403;-82
2021/09/17 11:02:05;;;;;;;4.50;0.40;;;;;;;14.75;83.91;101361.56;4918644;29;20032;-86
2021/09/17 11:04:33;;;;;;;2.65;0.28;;;;;;;14.69;81.71;101363.03;4929808;29;20099;-84
2021/09/17 11:07:17;;;;;;;0.45;0.20;;;;;;;14.69;80.43;101356.91;4941590;28;20093;-85
2021/09/17 11:09:51;;;;;;;1.85;0.20;;;;;;;14.64;80.49;101357.41;4991914;28;20412;-86
2021/09/17 11:12:25;;;;;;;1.58;0.30;;;;;;;14.62;79.63;101358.50;4957735;28;20030;-85
2021/09/17 11:14:58;;;;;;;3.08;0.30;;;;;;;14.62;80.17;101355.88;4978880;28;20045;-83
2021/09/17 11:17:49;;;;;;;1.25;0.30;;;;;;;14.62;82.25;101356.72;4969919;28;20501;-85
2021/09/17 11:20:26;;;;;;;0.88;0.30;;;;;;;14.54;83.79;101352.22;4980961;28;20519;-86
2021/09/17 11:22:57;;;;;;;0.22;0.20;;;;;;;14.55;84.05;101360.94;4989085;28;20034;-85